sensor_id;sensor_type;location;lat;lon;timestamp;P1;durP1;ratioP1;P2;durP2;ratioP2
13443;SDS011;6794;59.218;18.218;2023-03-23T00:00:46;6.27;;;1.37;;
13443;SDS011;6794;59.218;18.218;2023-03-23T00:03:12;2.27;;;1.00;;
13443;SDS011;6794;59.218;18.218;2023-03-23T00:05:39;4.60;;;1.37;;
13443;SDS011;6794;59.218;18.218;2023-03-23T00:08:19;3.37;;;1.53;;
13443;SDS011;6794;59.218;18.218;2023-03-23T00:10:49;5.10;;;1.17;;
13443;SDS011;6794;59.218;18.218;2023-03-23T00:13:24;3.27;;;1.07;;
13443;SDS011;6794;59.218;18.218;2023-03-23T00:15:51;7.60;;;1.43;;
13443;SDS011;6794;59.218;18.218;2023-03-23T00:18:20;4.47;;;2.07;;
13443;SDS011;6794;59.218;18.218;2023-03-23T00:20:50;4.72;;;1.45;;
13443;SDS011;6794;59.218;18.218;2023-03-23T00:23:17;4.87;;;1.57;;
13443;SDS011;6794;59.218;18.218;2023-03-23T00:25:47;3.90;;;1.30;;
13443;SDS011;6794;59.218;18.218;2023-03-23T00:28:14;6.67;;;1.30;;
13443;SDS011;6794;59.218;18.218;2023-03-23T00:30:41;2.70;;;1.10;;
13443;SDS011;6794;59.218;18.218;2023-03-23T00:33:08;5.83;;;1.73;;
13443;SDS011;6794;59.218;18.218;2023-03-23T00:35:39;3.63;;;1.37;;
13443;SDS011;6794;59.218;18.218;2023-03-23T00:38:05;5.33;;;1.60;;
13443;SDS011;6794;59.218;18.218;2023-03-23T00:40:33;5.60;;;1.83;;
13443;SDS011;6794;59.218;18.218;2023-03-23T00:43:01;5.90;;;2.00;;
13443;SDS011;6794;59.218;18.218;2023-03-23T00:45:28;7.80;;;2.10;;
13443;SDS011;6794;59.218;18.218;2023-03-23T00:47:55;9.33;;;2.30;;
13443;SDS011;6794;59.218;18.218;2023-03-23T00:50:21;6.87;;;2.40;;
13443;SDS011;6794;59.218;18.218;2023-03-23T00:52:48;9.37;;;2.53;;
13443;SDS011;6794;59.218;18.218;2023-03-23T00:55:17;7.57;;;2.10;;
13443;SDS011;6794;59.218;18.218;2023-03-23T00:57:43;7.80;;;2.00;;
13443;SDS011;6794;59.218;18.218;2023-03-23T01:00:10;9.40;;;2.53;;
13443;SDS011;6794;59.218;18.218;2023-03-23T01:02:36;8.37;;;2.37;;
13443;SDS011;6794;59.218;18.218;2023-03-23T01:05:02;7.83;;;2.13;;
13443;SDS011;6794;59.218;18.218;2023-03-23T01:07:28;6.27;;;2.17;;
13443;SDS011;6794;59.218;18.218;2023-03-23T01:09:58;8.47;;;2.30;;
13443;SDS011;6794;59.218;18.218;2023-03-23T01:12:26;7.17;;;2.33;;
13443;SDS011;6794;59.218;18.218;2023-03-23T01:14:52;8.63;;;1.90;;
13443;SDS011;6794;59.218;18.218;2023-03-23T01:17:18;7.47;;;1.90;;
13443;SDS011;6794;59.218;18.218;2023-03-23T01:19:45;11.07;;;2.37;;
13443;SDS011;6794;59.218;18.218;2023-03-23T01:22:11;5.63;;;1.70;;
13443;SDS011;6794;59.218;18.218;2023-03-23T01:24:37;17.03;;;2.77;;
13443;SDS011;6794;59.218;18.218;2023-03-23T01:27:04;7.97;;;2.20;;
13443;SDS011;6794;59.218;18.218;2023-03-23T01:29:35;8.30;;;1.80;;
13443;SDS011;6794;59.218;18.218;2023-03-23T01:32:01;7.77;;;2.07;;
13443;SDS011;6794;59.218;18.218;2023-03-23T01:34:27;7.78;;;2.25;;
13443;SDS011;6794;59.218;18.218;2023-03-23T01:36:53;11.33;;;2.50;;
13443;SDS011;6794;59.218;18.218;2023-03-23T01:39:20;11.20;;;2.47;;
13443;SDS011;6794;59.218;18.218;2023-03-23T01:41:46;4.63;;;1.97;;
13443;SDS011;6794;59.218;18.218;2023-03-23T01:46:44;9.53;;;2.57;;
13443;SDS011;6794;59.218;18.218;2023-03-23T01:49:11;8.57;;;2.27;;
13443;SDS011;6794;59.218;18.218;2023-03-23T01:51:43;9.10;;;2.83;;
13443;SDS011;6794;59.218;18.218;2023-03-23T01:54:12;7.50;;;2.03;;
13443;SDS011;6794;59.218;18.218;2023-03-23T01:56:59;8.77;;;2.23;;
13443;SDS011;6794;59.218;18.218;2023-03-23T01:59:26;10.20;;;2.72;;
13443;SDS011;6794;59.218;18.218;2023-03-23T02:01:53;10.97;;;3.07;;
13443;SDS011;6794;59.218;18.218;2023-03-23T02:04:22;11.77;;;2.70;;
13443;SDS011;6794;59.218;18.218;2023-03-23T02:06:49;8.27;;;2.27;;
13443;SDS011;6794;59.218;18.218;2023-03-23T02:09:15;8.30;;;2.23;;
13443;SDS011;6794;59.218;18.218;2023-03-23T02:11:44;9.60;;;1.90;;
13443;SDS011;6794;59.218;18.218;2023-03-23T02:14:11;9.47;;;2.03;;
13443;SDS011;6794;59.218;18.218;2023-03-23T02:27:08;11.37;;;2.30;;
13443;SDS011;6794;59.218;18.218;2023-03-23T02:29:43;11.87;;;2.30;;
13443;SDS011;6794;59.218;18.218;2023-03-23T02:32:12;11.90;;;2.77;;
13443;SDS011;6794;59.218;18.218;2023-03-23T02:34:46;12.90;;;2.50;;
13443;SDS011;6794;59.218;18.218;2023-03-23T02:37:17;8.50;;;2.03;;
13443;SDS011;6794;59.218;18.218;2023-03-23T02:39:46;10.67;;;2.77;;
13443;SDS011;6794;59.218;18.218;2023-03-23T02:42:17;7.13;;;2.20;;
13443;SDS011;6794;59.218;18.218;2023-03-23T02:44:45;13.43;;;2.77;;
13443;SDS011;6794;59.218;18.218;2023-03-23T02:47:19;10.02;;;2.70;;
13443;SDS011;6794;59.218;18.218;2023-03-23T02:49:46;8.63;;;2.27;;
13443;SDS011;6794;59.218;18.218;2023-03-23T02:52:15;7.77;;;2.03;;
13443;SDS011;6794;59.218;18.218;2023-03-23T02:54:42;13.67;;;2.47;;
13443;SDS011;6794;59.218;18.218;2023-03-23T02:57:09;11.43;;;2.93;;
13443;SDS011;6794;59.218;18.218;2023-03-23T02:59:36;14.77;;;2.73;;
13443;SDS011;6794;59.218;18.218;2023-03-23T03:04:28;15.50;;;3.03;;
13443;SDS011;6794;59.218;18.218;2023-03-23T03:07:09;12.10;;;2.60;;
13443;SDS011;6794;59.218;18.218;2023-03-23T03:10:00;7.53;;;2.30;;
13443;SDS011;6794;59.218;18.218;2023-03-23T03:12:34;9.30;;;2.60;;
13443;SDS011;6794;59.218;18.218;2023-03-23T03:17:50;9.93;;;3.37;;
13443;SDS011;6794;59.218;18.218;2023-03-23T03:20:18;6.00;;;2.40;;
13443;SDS011;6794;59.218;18.218;2023-03-23T03:22:44;12.87;;;2.90;;
13443;SDS011;6794;59.218;18.218;2023-03-23T03:25:11;9.00;;;2.87;;
13443;SDS011;6794;59.218;18.218;2023-03-23T03:27:38;16.27;;;3.00;;
13443;SDS011;6794;59.218;18.218;2023-03-23T03:30:06;8.57;;;2.53;;
13443;SDS011;6794;59.218;18.218;2023-03-23T03:32:36;12.03;;;2.50;;
13443;SDS011;6794;59.218;18.218;2023-03-23T03:35:04;12.33;;;2.53;;
13443;SDS011;6794;59.218;18.218;2023-03-23T03:37:37;11.25;;;2.97;;
13443;SDS011;6794;59.218;18.218;2023-03-23T03:40:06;10.10;;;2.70;;
13443;SDS011;6794;59.218;18.218;2023-03-23T03:42:37;13.87;;;3.33;;
13443;SDS011;6794;59.218;18.218;2023-03-23T03:45:03;12.80;;;2.57;;
13443;SDS011;6794;59.218;18.218;2023-03-23T03:47:30;14.80;;;3.30;;
13443;SDS011;6794;59.218;18.218;2023-03-23T03:49:56;10.03;;;2.23;;
13443;SDS011;6794;59.218;18.218;2023-03-23T03:52:22;8.47;;;2.77;;
13443;SDS011;6794;59.218;18.218;2023-03-23T03:54:48;9.67;;;2.50;;
13443;SDS011;6794;59.218;18.218;2023-03-23T03:57:14;15.70;;;2.80;;
13443;SDS011;6794;59.218;18.218;2023-03-23T03:59:42;8.33;;;2.50;;
13443;SDS011;6794;59.218;18.218;2023-03-23T04:02:08;9.43;;;2.60;;
13443;SDS011;6794;59.218;18.218;2023-03-23T04:04:38;13.38;;;3.70;;
13443;SDS011;6794;59.218;18.218;2023-03-23T04:07:06;10.73;;;3.30;;
13443;SDS011;6794;59.218;18.218;2023-03-23T04:09:35;12.20;;;2.70;;
13443;SDS011;6794;59.218;18.218;2023-03-23T04:12:02;18.10;;;2.90;;
13443;SDS011;6794;59.218;18.218;2023-03-23T04:14:28;9.57;;;2.57;;
13443;SDS011;6794;59.218;18.218;2023-03-23T04:16:55;15.93;;;3.17;;
13443;SDS011;6794;59.218;18.218;2023-03-23T04:19:22;10.77;;;2.30;;
13443;SDS011;6794;59.218;18.218;2023-03-23T04:21:48;8.30;;;2.50;;
13443;SDS011;6794;59.218;18.218;2023-03-23T04:24:17;10.93;;;2.83;;
13443;SDS011;6794;59.218;18.218;2023-03-23T04:26:46;15.07;;;3.23;;
13443;SDS011;6794;59.218;18.218;2023-03-23T04:29:12;13.63;;;3.42;;
13443;SDS011;6794;59.218;18.218;2023-03-23T04:31:38;14.90;;;3.53;;
13443;SDS011;6794;59.218;18.218;2023-03-23T04:34:05;16.13;;;3.03;;
13443;SDS011;6794;59.218;18.218;2023-03-23T04:36:31;17.03;;;3.60;;
13443;SDS011;6794;59.218;18.218;2023-03-23T04:39:00;9.20;;;2.50;;
13443;SDS011;6794;59.218;18.218;2023-03-23T04:41:27;15.57;;;3.17;;
13443;SDS011;6794;59.218;18.218;2023-03-23T04:43:54;15.03;;;2.67;;
13443;SDS011;6794;59.218;18.218;2023-03-23T04:46:21;15.03;;;2.60;;
13443;SDS011;6794;59.218;18.218;2023-03-23T04:48:47;14.20;;;3.13;;
13443;SDS011;6794;59.218;18.218;2023-03-23T04:51:13;13.50;;;3.20;;
13443;SDS011;6794;59.218;18.218;2023-03-23T04:53:39;12.95;;;3.10;;
13443;SDS011;6794;59.218;18.218;2023-03-23T04:56:06;13.10;;;3.07;;
13443;SDS011;6794;59.218;18.218;2023-03-23T04:58:32;14.43;;;3.03;;
13443;SDS011;6794;59.218;18.218;2023-03-23T05:01:01;11.83;;;3.83;;
13443;SDS011;6794;59.218;18.218;2023-03-23T05:03:27;12.50;;;3.43;;
13443;SDS011;6794;59.218;18.218;2023-03-23T05:05:53;15.80;;;3.07;;
13443;SDS011;6794;59.218;18.218;2023-03-23T05:08:20;11.63;;;3.13;;
13443;SDS011;6794;59.218;18.218;2023-03-23T05:10:49;10.00;;;2.43;;
13443;SDS011;6794;59.218;18.218;2023-03-23T05:13:16;9.53;;;2.73;;
13443;SDS011;6794;59.218;18.218;2023-03-23T05:15:42;11.43;;;2.63;;
13443;SDS011;6794;59.218;18.218;2023-03-23T05:18:08;17.63;;;3.37;;
13443;SDS011;6794;59.218;18.218;2023-03-23T05:20:36;13.77;;;3.78;;
13443;SDS011;6794;59.218;18.218;2023-03-23T05:23:02;16.50;;;3.37;;
13443;SDS011;6794;59.218;18.218;2023-03-23T05:25:28;13.57;;;3.53;;
13443;SDS011;6794;59.218;18.218;2023-03-23T05:27:54;18.80;;;3.33;;
13443;SDS011;6794;59.218;18.218;2023-03-23T05:30:20;16.63;;;3.10;;
13443;SDS011;6794;59.218;18.218;2023-03-23T05:32:47;16.20;;;3.60;;
13443;SDS011;6794;59.218;18.218;2023-03-23T05:35:17;15.97;;;3.30;;
13443;SDS011;6794;59.218;18.218;2023-03-23T05:37:43;12.97;;;2.93;;
13443;SDS011;6794;59.218;18.218;2023-03-23T05:40:10;13.80;;;3.00;;
13443;SDS011;6794;59.218;18.218;2023-03-23T05:42:37;9.83;;;2.97;;
13443;SDS011;6794;59.218;18.218;2023-03-23T05:45:06;13.10;;;3.33;;
13443;SDS011;6794;59.218;18.218;2023-03-23T05:47:33;12.87;;;3.53;;
13443;SDS011;6794;59.218;18.218;2023-03-23T05:49:59;15.60;;;3.40;;
13443;SDS011;6794;59.218;18.218;2023-03-23T05:52:26;9.63;;;2.40;;
13443;SDS011;6794;59.218;18.218;2023-03-23T05:54:52;12.67;;;2.83;;
13443;SDS011;6794;59.218;18.218;2023-03-23T05:57:18;10.23;;;2.80;;
13443;SDS011;6794;59.218;18.218;2023-03-23T05:59:47;12.67;;;2.90;;
13443;SDS011;6794;59.218;18.218;2023-03-23T06:02:14;9.30;;;2.90;;
13443;SDS011;6794;59.218;18.218;2023-03-23T06:04:40;12.77;;;3.00;;
13443;SDS011;6794;59.218;18.218;2023-03-23T06:07:07;10.50;;;3.13;;
13443;SDS011;6794;59.218;18.218;2023-03-23T06:09:37;13.73;;;3.27;;
13443;SDS011;6794;59.218;18.218;2023-03-23T06:12:03;10.40;;;3.13;;
13443;SDS011;6794;59.218;18.218;2023-03-23T06:14:29;9.60;;;2.83;;
13443;SDS011;6794;59.218;18.218;2023-03-23T06:16:56;11.33;;;2.63;;
13443;SDS011;6794;59.218;18.218;2023-03-23T06:19:22;11.10;;;3.23;;
13443;SDS011;6794;59.218;18.218;2023-03-23T06:21:48;13.13;;;3.57;;
13443;SDS011;6794;59.218;18.218;2023-03-23T06:24:14;17.07;;;8.53;;
13443;SDS011;6794;59.218;18.218;2023-03-23T06:26:40;16.87;;;9.77;;
13443;SDS011;6794;59.218;18.218;2023-03-23T06:29:08;12.73;;;9.03;;
13443;SDS011;6794;59.218;18.218;2023-03-23T06:31:40;11.23;;;8.90;;
13443;SDS011;6794;59.218;18.218;2023-03-23T06:34:07;10.27;;;9.33;;
13443;SDS011;6794;59.218;18.218;2023-03-23T06:36:34;13.07;;;8.57;;
13443;SDS011;6794;59.218;18.218;2023-03-23T06:39:00;7.27;;;3.23;;
13443;SDS011;6794;59.218;18.218;2023-03-23T06:41:29;11.23;;;3.17;;
13443;SDS011;6794;59.218;18.218;2023-03-23T06:43:55;12.40;;;3.53;;
13443;SDS011;6794;59.218;18.218;2023-03-23T06:46:21;9.53;;;3.00;;
13443;SDS011;6794;59.218;18.218;2023-03-23T06:48:47;8.80;;;2.27;;
13443;SDS011;6794;59.218;18.218;2023-03-23T06:51:14;14.63;;;5.90;;
13443;SDS011;6794;59.218;18.218;2023-03-23T06:53:40;11.73;;;2.60;;
13443;SDS011;6794;59.218;18.218;2023-03-23T06:56:07;8.70;;;2.40;;
13443;SDS011;6794;59.218;18.218;2023-03-23T06:58:33;6.93;;;2.23;;
13443;SDS011;6794;59.218;18.218;2023-03-23T07:00:59;10.70;;;2.40;;
13443;SDS011;6794;59.218;18.218;2023-03-23T07:03:26;13.07;;;3.30;;
13443;SDS011;6794;59.218;18.218;2023-03-23T07:05:52;8.53;;;2.73;;
13443;SDS011;6794;59.218;18.218;2023-03-23T07:08:19;11.33;;;2.87;;
13443;SDS011;6794;59.218;18.218;2023-03-23T07:10:45;10.97;;;2.30;;
13443;SDS011;6794;59.218;18.218;2023-03-23T07:13:11;8.67;;;2.77;;
13443;SDS011;6794;59.218;18.218;2023-03-23T07:15:38;10.03;;;2.50;;
13443;SDS011;6794;59.218;18.218;2023-03-23T07:18:04;7.67;;;2.90;;
13443;SDS011;6794;59.218;18.218;2023-03-23T07:20:30;11.97;;;2.63;;
13443;SDS011;6794;59.218;18.218;2023-03-23T07:22:57;7.53;;;1.33;;
13443;SDS011;6794;59.218;18.218;2023-03-23T07:25:23;9.03;;;2.63;;
13443;SDS011;6794;59.218;18.218;2023-03-23T07:27:49;9.93;;;2.93;;
13443;SDS011;6794;59.218;18.218;2023-03-23T07:30:15;11.03;;;2.87;;
13443;SDS011;6794;59.218;18.218;2023-03-23T07:32:41;12.07;;;2.50;;
13443;SDS011;6794;59.218;18.218;2023-03-23T07:35:08;11.57;;;2.80;;
13443;SDS011;6794;59.218;18.218;2023-03-23T07:37:35;8.90;;;2.70;;
13443;SDS011;6794;59.218;18.218;2023-03-23T07:40:02;10.93;;;2.43;;
13443;SDS011;6794;59.218;18.218;2023-03-23T07:42:40;10.00;;;3.23;;
13443;SDS011;6794;59.218;18.218;2023-03-23T07:45:07;9.83;;;2.30;;
13443;SDS011;6794;59.218;18.218;2023-03-23T07:47:33;8.53;;;2.37;;
13443;SDS011;6794;59.218;18.218;2023-03-23T07:50:02;8.73;;;2.23;;
13443;SDS011;6794;59.218;18.218;2023-03-23T07:52:28;7.40;;;2.40;;
13443;SDS011;6794;59.218;18.218;2023-03-23T07:54:55;8.98;;;2.42;;
13443;SDS011;6794;59.218;18.218;2023-03-23T07:57:21;10.23;;;2.30;;
13443;SDS011;6794;59.218;18.218;2023-03-23T07:59:47;10.17;;;2.80;;
13443;SDS011;6794;59.218;18.218;2023-03-23T08:02:13;8.47;;;2.73;;
13443;SDS011;6794;59.218;18.218;2023-03-23T08:04:40;10.83;;;2.63;;
13443;SDS011;6794;59.218;18.218;2023-03-23T08:07:07;11.53;;;2.60;;
13443;SDS011;6794;59.218;18.218;2023-03-23T08:09:37;8.33;;;2.20;;
13443;SDS011;6794;59.218;18.218;2023-03-23T08:12:03;10.13;;;2.47;;
13443;SDS011;6794;59.218;18.218;2023-03-23T08:14:29;16.50;;;2.67;;
13443;SDS011;6794;59.218;18.218;2023-03-23T08:16:55;8.27;;;2.10;;
13443;SDS011;6794;59.218;18.218;2023-03-23T08:19:22;10.03;;;2.40;;
13443;SDS011;6794;59.218;18.218;2023-03-23T08:21:48;10.18;;;2.75;;
13443;SDS011;6794;59.218;18.218;2023-03-23T08:24:15;11.47;;;2.67;;
13443;SDS011;6794;59.218;18.218;2023-03-23T08:26:41;9.53;;;2.60;;
13443;SDS011;6794;59.218;18.218;2023-03-23T08:29:07;10.07;;;2.20;;
13443;SDS011;6794;59.218;18.218;2023-03-23T08:31:33;9.30;;;2.37;;
13443;SDS011;6794;59.218;18.218;2023-03-23T08:34:01;9.97;;;2.40;;
13443;SDS011;6794;59.218;18.218;2023-03-23T08:36:27;8.60;;;2.10;;
13443;SDS011;6794;59.218;18.218;2023-03-23T08:38:53;6.63;;;1.90;;
13443;SDS011;6794;59.218;18.218;2023-03-23T08:41:19;11.30;;;3.13;;
13443;SDS011;6794;59.218;18.218;2023-03-23T08:43:45;9.90;;;2.77;;
13443;SDS011;6794;59.218;18.218;2023-03-23T08:46:12;6.63;;;2.00;;
13443;SDS011;6794;59.218;18.218;2023-03-23T08:48:38;10.70;;;2.13;;
13443;SDS011;6794;59.218;18.218;2023-03-23T08:51:05;6.53;;;1.80;;
13443;SDS011;6794;59.218;18.218;2023-03-23T08:53:32;10.90;;;2.33;;
13443;SDS011;6794;59.218;18.218;2023-03-23T08:56:08;8.37;;;2.77;;
13443;SDS011;6794;59.218;18.218;2023-03-23T08:58:35;12.13;;;3.20;;
13443;SDS011;6794;59.218;18.218;2023-03-23T09:01:01;10.43;;;3.13;;
13443;SDS011;6794;59.218;18.218;2023-03-23T09:03:27;8.40;;;2.40;;
13443;SDS011;6794;59.218;18.218;2023-03-23T09:05:57;6.77;;;2.10;;
13443;SDS011;6794;59.218;18.218;2023-03-23T09:08:24;17.33;;;2.80;;
13443;SDS011;6794;59.218;18.218;2023-03-23T09:10:51;9.33;;;2.67;;
13443;SDS011;6794;59.218;18.218;2023-03-23T09:13:17;10.17;;;2.73;;
13443;SDS011;6794;59.218;18.218;2023-03-23T09:15:43;7.33;;;2.40;;
13443;SDS011;6794;59.218;18.218;2023-03-23T09:18:09;7.33;;;2.43;;
13443;SDS011;6794;59.218;18.218;2023-03-23T09:20:36;10.48;;;3.30;;
13443;SDS011;6794;59.218;18.218;2023-03-23T09:23:03;7.20;;;2.77;;
13443;SDS011;6794;59.218;18.218;2023-03-23T09:25:30;10.67;;;2.57;;
13443;SDS011;6794;59.218;18.218;2023-03-23T09:27:57;7.97;;;2.43;;
13443;SDS011;6794;59.218;18.218;2023-03-23T09:30:24;8.17;;;2.07;;
13443;SDS011;6794;59.218;18.218;2023-03-23T09:32:54;7.53;;;2.20;;
13443;SDS011;6794;59.218;18.218;2023-03-23T09:35:20;12.27;;;2.90;;
13443;SDS011;6794;59.218;18.218;2023-03-23T09:37:47;11.17;;;2.70;;
13443;SDS011;6794;59.218;18.218;2023-03-23T09:40:15;10.65;;;3.10;;
13443;SDS011;6794;59.218;18.218;2023-03-23T09:50:17;12.67;;;2.50;;
13443;SDS011;6794;59.218;18.218;2023-03-23T09:52:52;8.43;;;2.50;;
13443;SDS011;6794;59.218;18.218;2023-03-23T09:55:20;6.87;;;2.40;;
13443;SDS011;6794;59.218;18.218;2023-03-23T09:57:49;9.03;;;2.97;;
13443;SDS011;6794;59.218;18.218;2023-03-23T10:00:24;11.07;;;2.80;;
13443;SDS011;6794;59.218;18.218;2023-03-23T10:03:26;8.13;;;2.67;;
13443;SDS011;6794;59.218;18.218;2023-03-23T10:05:45;9.23;;;3.00;;
13443;SDS011;6794;59.218;18.218;2023-03-23T10:08:19;8.63;;;2.63;;
13443;SDS011;6794;59.218;18.218;2023-03-23T10:16:17;7.97;;;2.50;;
13443;SDS011;6794;59.218;18.218;2023-03-23T10:21:30;8.07;;;2.80;;
13443;SDS011;6794;59.218;18.218;2023-03-23T10:23:58;8.97;;;1.90;;
13443;SDS011;6794;59.218;18.218;2023-03-23T10:28:51;10.67;;;2.63;;
13443;SDS011;6794;59.218;18.218;2023-03-23T10:31:19;8.40;;;2.53;;
13443;SDS011;6794;59.218;18.218;2023-03-23T10:33:48;8.97;;;2.47;;
13443;SDS011;6794;59.218;18.218;2023-03-23T10:36:16;11.33;;;2.67;;
13443;SDS011;6794;59.218;18.218;2023-03-23T10:38:44;10.33;;;2.87;;
13443;SDS011;6794;59.218;18.218;2023-03-23T10:41:15;9.03;;;2.00;;
13443;SDS011;6794;59.218;18.218;2023-03-23T10:43:43;9.63;;;2.13;;
13443;SDS011;6794;59.218;18.218;2023-03-23T10:46:16;7.60;;;2.30;;
13443;SDS011;6794;59.218;18.218;2023-03-23T10:48:45;9.30;;;2.40;;
13443;SDS011;6794;59.218;18.218;2023-03-23T10:51:14;9.30;;;2.60;;
13443;SDS011;6794;59.218;18.218;2023-03-23T10:53:43;8.53;;;2.30;;
13443;SDS011;6794;59.218;18.218;2023-03-23T10:56:23;7.47;;;2.13;;
13443;SDS011;6794;59.218;18.218;2023-03-23T10:58:50;7.32;;;2.67;;
13443;SDS011;6794;59.218;18.218;2023-03-23T11:01:18;7.43;;;2.60;;
13443;SDS011;6794;59.218;18.218;2023-03-23T11:03:45;9.60;;;2.27;;
13443;SDS011;6794;59.218;18.218;2023-03-23T11:06:20;7.10;;;2.37;;
13443;SDS011;6794;59.218;18.218;2023-03-23T11:08:52;11.60;;;2.17;;
13443;SDS011;6794;59.218;18.218;2023-03-23T11:11:21;8.97;;;2.57;;
13443;SDS011;6794;59.218;18.218;2023-03-23T11:13:55;8.43;;;2.47;;
13443;SDS011;6794;59.218;18.218;2023-03-23T11:16:32;6.10;;;1.87;;
13443;SDS011;6794;59.218;18.218;2023-03-23T11:18:59;7.37;;;1.63;;
13443;SDS011;6794;59.218;18.218;2023-03-23T11:21:26;7.03;;;2.00;;
13443;SDS011;6794;59.218;18.218;2023-03-23T11:23:54;5.97;;;2.15;;
13443;SDS011;6794;59.218;18.218;2023-03-23T11:26:29;6.83;;;2.40;;
13443;SDS011;6794;59.218;18.218;2023-03-23T11:31:23;7.67;;;2.70;;
13443;SDS011;6794;59.218;18.218;2023-03-23T11:33:51;8.93;;;2.53;;
13443;SDS011;6794;59.218;18.218;2023-03-23T11:36:18;7.37;;;2.43;;
13443;SDS011;6794;59.218;18.218;2023-03-23T11:38:44;9.03;;;2.37;;
13443;SDS011;6794;59.218;18.218;2023-03-23T11:41:11;9.50;;;2.40;;
13443;SDS011;6794;59.218;18.218;2023-03-23T11:43:41;8.43;;;2.50;;
13443;SDS011;6794;59.218;18.218;2023-03-23T11:46:16;12.03;;;2.60;;
13443;SDS011;6794;59.218;18.218;2023-03-23T11:49:08;7.10;;;2.10;;
13443;SDS011;6794;59.218;18.218;2023-03-23T11:54:13;12.00;;;2.73;;
13443;SDS011;6794;59.218;18.218;2023-03-23T11:56:42;10.53;;;2.53;;
13443;SDS011;6794;59.218;18.218;2023-03-23T11:59:12;5.37;;;2.30;;
13443;SDS011;6794;59.218;18.218;2023-03-23T12:12:29;10.50;;;2.47;;
13443;SDS011;6794;59.218;18.218;2023-03-23T12:15:02;6.67;;;1.83;;
13443;SDS011;6794;59.218;18.218;2023-03-23T12:17:54;9.05;;;2.90;;
13443;SDS011;6794;59.218;18.218;2023-03-23T12:38:38;6.10;;;2.37;;
13443;SDS011;6794;59.218;18.218;2023-03-23T12:41:14;7.60;;;2.43;;
13443;SDS011;6794;59.218;18.218;2023-03-23T12:43:58;7.18;;;2.60;;
13443;SDS011;6794;59.218;18.218;2023-03-23T12:46:37;10.77;;;2.43;;
13443;SDS011;6794;59.218;18.218;2023-03-23T12:49:13;8.70;;;3.40;;
13443;SDS011;6794;59.218;18.218;2023-03-23T12:51:49;9.10;;;2.40;;
13443;SDS011;6794;59.218;18.218;2023-03-23T12:57:06;6.83;;;2.23;;
13443;SDS011;6794;59.218;18.218;2023-03-23T12:59:43;9.47;;;3.13;;
13443;SDS011;6794;59.218;18.218;2023-03-23T13:02:22;9.57;;;2.80;;
13443;SDS011;6794;59.218;18.218;2023-03-23T13:04:51;6.10;;;2.40;;
13443;SDS011;6794;59.218;18.218;2023-03-23T13:07:22;7.93;;;2.77;;
13443;SDS011;6794;59.218;18.218;2023-03-23T13:12:23;7.63;;;2.50;;
13443;SDS011;6794;59.218;18.218;2023-03-23T13:14:53;9.70;;;2.40;;
13443;SDS011;6794;59.218;18.218;2023-03-23T13:20:11;5.73;;;1.90;;
13443;SDS011;6794;59.218;18.218;2023-03-23T13:22:44;9.23;;;2.10;;
13443;SDS011;6794;59.218;18.218;2023-03-23T13:25:15;4.90;;;1.73;;
13443;SDS011;6794;59.218;18.218;2023-03-23T13:27:43;8.97;;;2.80;;
13443;SDS011;6794;59.218;18.218;2023-03-23T13:30:17;5.37;;;2.00;;
13443;SDS011;6794;59.218;18.218;2023-03-23T13:32:49;6.20;;;1.83;;
13443;SDS011;6794;59.218;18.218;2023-03-23T13:35:17;7.07;;;2.37;;
13443;SDS011;6794;59.218;18.218;2023-03-23T13:37:47;8.18;;;2.50;;
13443;SDS011;6794;59.218;18.218;2023-03-23T13:40:16;4.13;;;1.90;;
13443;SDS011;6794;59.218;18.218;2023-03-23T13:42:50;9.60;;;2.40;;
13443;SDS011;6794;59.218;18.218;2023-03-23T13:47:49;9.17;;;2.73;;
13443;SDS011;6794;59.218;18.218;2023-03-23T14:02:58;6.45;;;2.15;;
13443;SDS011;6794;59.218;18.218;2023-03-23T14:05:28;4.60;;;2.27;;
13443;SDS011;6794;59.218;18.218;2023-03-23T14:10:21;5.77;;;2.17;;
13443;SDS011;6794;59.218;18.218;2023-03-23T14:12:49;4.23;;;1.80;;
13443;SDS011;6794;59.218;18.218;2023-03-23T14:15:16;6.67;;;2.10;;
13443;SDS011;6794;59.218;18.218;2023-03-23T14:17:43;8.23;;;2.07;;
13443;SDS011;6794;59.218;18.218;2023-03-23T14:20:15;6.13;;;2.10;;
13443;SDS011;6794;59.218;18.218;2023-03-23T14:22:45;5.47;;;3.00;;
13443;SDS011;6794;59.218;18.218;2023-03-23T14:25:12;5.30;;;2.17;;
13443;SDS011;6794;59.218;18.218;2023-03-23T14:27:39;5.03;;;2.10;;
13443;SDS011;6794;59.218;18.218;2023-03-23T14:30:08;8.35;;;2.40;;
13443;SDS011;6794;59.218;18.218;2023-03-23T14:32:34;4.63;;;2.10;;
13443;SDS011;6794;59.218;18.218;2023-03-23T14:35:04;10.07;;;1.93;;
13443;SDS011;6794;59.218;18.218;2023-03-23T14:37:31;4.37;;;1.73;;
13443;SDS011;6794;59.218;18.218;2023-03-23T14:40:00;4.73;;;1.87;;
13443;SDS011;6794;59.218;18.218;2023-03-23T14:42:30;5.90;;;1.97;;
13443;SDS011;6794;59.218;18.218;2023-03-23T14:44:57;6.47;;;2.20;;
13443;SDS011;6794;59.218;18.218;2023-03-23T14:49:55;8.40;;;2.27;;
13443;SDS011;6794;59.218;18.218;2023-03-23T14:52:23;4.40;;;1.73;;
13443;SDS011;6794;59.218;18.218;2023-03-23T14:54:49;3.03;;;2.10;;
13443;SDS011;6794;59.218;18.218;2023-03-23T14:57:26;4.40;;;2.05;;
13443;SDS011;6794;59.218;18.218;2023-03-23T14:59:53;5.17;;;1.93;;
13443;SDS011;6794;59.218;18.218;2023-03-23T15:04:53;6.00;;;1.80;;
13443;SDS011;6794;59.218;18.218;2023-03-23T15:07:20;3.40;;;1.80;;
13443;SDS011;6794;59.218;18.218;2023-03-23T15:09:47;5.53;;;2.00;;
13443;SDS011;6794;59.218;18.218;2023-03-23T15:12:19;4.80;;;2.03;;
13443;SDS011;6794;59.218;18.218;2023-03-23T15:14:50;6.77;;;1.93;;
13443;SDS011;6794;59.218;18.218;2023-03-23T15:17:18;4.77;;;1.93;;
13443;SDS011;6794;59.218;18.218;2023-03-23T15:19:45;4.73;;;1.70;;
13443;SDS011;6794;59.218;18.218;2023-03-23T15:24:40;6.17;;;2.00;;
13443;SDS011;6794;59.218;18.218;2023-03-23T15:27:15;5.77;;;2.03;;
13443;SDS011;6794;59.218;18.218;2023-03-23T15:29:48;9.10;;;2.23;;
13443;SDS011;6794;59.218;18.218;2023-03-23T15:32:19;5.10;;;1.60;;
13443;SDS011;6794;59.218;18.218;2023-03-23T15:34:45;2.83;;;1.60;;
13443;SDS011;6794;59.218;18.218;2023-03-23T15:37:23;7.60;;;2.17;;
13443;SDS011;6794;59.218;18.218;2023-03-23T15:39:49;4.33;;;1.50;;
13443;SDS011;6794;59.218;18.218;2023-03-23T15:42:32;4.57;;;1.73;;
13443;SDS011;6794;59.218;18.218;2023-03-23T15:52:35;3.70;;;2.07;;
13443;SDS011;6794;59.218;18.218;2023-03-23T15:55:01;7.27;;;2.57;;
13443;SDS011;6794;59.218;18.218;2023-03-23T15:57:27;6.57;;;2.33;;
13443;SDS011;6794;59.218;18.218;2023-03-23T15:59:53;5.20;;;1.70;;
13443;SDS011;6794;59.218;18.218;2023-03-23T16:02:20;5.03;;;1.83;;
13443;SDS011;6794;59.218;18.218;2023-03-23T16:04:47;3.57;;;1.70;;
13443;SDS011;6794;59.218;18.218;2023-03-23T16:07:13;4.23;;;1.50;;
13443;SDS011;6794;59.218;18.218;2023-03-23T16:09:39;4.13;;;2.17;;
13443;SDS011;6794;59.218;18.218;2023-03-23T16:12:10;3.87;;;1.70;;
13443;SDS011;6794;59.218;18.218;2023-03-23T16:14:37;4.77;;;2.00;;
13443;SDS011;6794;59.218;18.218;2023-03-23T16:17:03;6.60;;;2.22;;
13443;SDS011;6794;59.218;18.218;2023-03-23T16:19:30;5.23;;;1.70;;
13443;SDS011;6794;59.218;18.218;2023-03-23T16:21:57;4.47;;;1.70;;
13443;SDS011;6794;59.218;18.218;2023-03-23T16:24:23;5.27;;;1.50;;
13443;SDS011;6794;59.218;18.218;2023-03-23T16:26:49;4.57;;;1.60;;
13443;SDS011;6794;59.218;18.218;2023-03-23T16:29:15;5.67;;;1.97;;
13443;SDS011;6794;59.218;18.218;2023-03-23T16:31:41;3.37;;;2.10;;
13443;SDS011;6794;59.218;18.218;2023-03-23T16:34:07;5.17;;;1.73;;
13443;SDS011;6794;59.218;18.218;2023-03-23T16:36:33;3.83;;;1.93;;
13443;SDS011;6794;59.218;18.218;2023-03-23T16:39:00;4.50;;;1.73;;
13443;SDS011;6794;59.218;18.218;2023-03-23T16:41:26;4.23;;;1.70;;